createdAt,value
2018-05-23T00:02:22.278Z,100.00
2018-05-23T00:04:50.860Z,100.00
2018-05-23T00:07:19.476Z,100.00
2018-05-23T00:09:48.012Z,100.00
2018-05-23T00:12:16.541Z,100.00
2018-05-23T00:14:45.151Z,100.00
2018-05-23T00:17:13.700Z,100.00
2018-05-23T00:19:42.235Z,100.00
2018-05-23T00:22:10.768Z,100.00
2018-05-23T00:24:39.304Z,100.00
2018-05-23T00:27:07.858Z,100.00
2018-05-23T00:29:36.582Z,100.00
2018-05-23T00:32:05.101Z,100.00
2018-05-23T00:34:33.633Z,100.00
2018-05-23T00:37:02.379Z,100.00
2018-05-23T00:39:30.896Z,100.00
2018-05-23T00:41:59.423Z,100.00
2018-05-23T00:44:27.947Z,100.00
2018-05-23T00:46:56.482Z,100.00
2018-05-23T00:49:25.008Z,100.00
2018-05-23T00:51:53.533Z,100.00
2018-05-23T00:54:22.057Z,100.00
2018-05-23T00:56:50.597Z,100.00
2018-05-23T00:59:19.141Z,100.00
2018-05-23T01:01:47.665Z,100.00
2018-05-23T01:04:16.195Z,100.00
2018-05-23T01:06:44.723Z,100.00
2018-05-23T01:09:13.448Z,100.00
2018-05-23T01:11:41.957Z,100.00
2018-05-23T01:14:10.476Z,100.00
2018-05-23T01:16:39.192Z,100.00
2018-05-23T01:19:10.988Z,100.00
2018-05-23T01:21:39.496Z,100.00
2018-05-23T01:24:08.026Z,100.00
2018-05-23T01:26:37.146Z,100.00
2018-05-23T01:29:05.691Z,100.00
2018-05-23T01:31:34.214Z,100.00
2018-05-23T01:34:02.868Z,100.00
2018-05-23T01:36:31.422Z,100.00
2018-05-23T01:38:59.935Z,100.00
2018-05-23T01:41:28.479Z,100.00
2018-05-23T01:43:57.009Z,100.00
2018-05-23T01:46:25.547Z,100.00
2018-05-23T01:49:05.990Z,100.00
2018-05-23T01:51:34.800Z,100.00
2018-05-23T01:54:03.335Z,100.00
2018-05-23T01:56:31.877Z,100.00
2018-05-23T01:59:00.413Z,100.00
2018-05-23T02:01:28.932Z,100.00
2018-05-23T02:03:57.469Z,100.00
2018-05-23T02:06:25.996Z,100.00
2018-05-23T02:08:54.823Z,100.00
2018-05-23T02:11:23.360Z,100.00
2018-05-23T02:13:51.908Z,100.00
2018-05-23T02:16:20.559Z,100.00
2018-05-23T02:18:49.218Z,100.00
2018-05-23T02:21:17.749Z,100.00
2018-05-23T02:23:46.381Z,100.00
2018-05-23T02:26:14.913Z,100.00
2018-05-23T02:28:43.448Z,100.00
2018-05-23T02:31:11.989Z,100.00
2018-05-23T02:33:40.516Z,100.00
2018-05-23T02:36:09.036Z,100.00
2018-05-23T02:38:40.179Z,100.00
2018-05-23T02:41:12.277Z,100.00
2018-05-23T02:43:40.966Z,100.00
2018-05-23T02:46:23.937Z,100.00
2018-05-23T02:48:52.638Z,100.00
2018-05-23T02:51:21.162Z,100.00
2018-05-23T02:53:49.691Z,100.00
2018-05-23T02:56:18.312Z,100.00
2018-05-23T02:58:46.862Z,100.00
2018-05-23T03:01:15.377Z,100.00
2018-05-23T03:03:44.016Z,99.49
2018-05-23T03:06:12.542Z,99.35
2018-05-23T03:08:41.090Z,99.64
2018-05-23T03:11:09.708Z,100.00
2018-05-23T03:13:38.231Z,99.96
2018-05-23T03:16:06.759Z,99.68
2018-05-23T03:18:35.549Z,99.73
2018-05-23T03:21:04.080Z,100.00
2018-05-23T03:23:32.600Z,100.00
2018-05-23T03:26:01.437Z,100.00
2018-05-23T03:28:29.957Z,99.88
2018-05-23T03:30:58.508Z,99.86
2018-05-23T03:33:27.185Z,99.70
2018-05-23T03:35:55.727Z,99.55
2018-05-23T03:38:24.248Z,99.52
2018-05-23T03:40:53.109Z,99.75
2018-05-23T03:43:21.641Z,99.46
2018-05-23T03:45:50.177Z,99.31
2018-05-23T03:48:18.804Z,99.00
2018-05-23T03:50:47.326Z,98.67
2018-05-23T03:53:15.860Z,98.60
2018-05-23T03:55:44.412Z,98.75
2018-05-23T03:58:12.939Z,98.91
2018-05-23T04:00:53.448Z,98.54
2018-05-23T04:03:33.703Z,98.75
2018-05-23T04:06:14.314Z,98.93
2018-05-23T04:08:42.831Z,98.87
2018-05-23T04:11:11.455Z,98.69
2018-05-23T04:13:39.989Z,98.27
2018-05-23T04:16:08.564Z,98.49
2018-05-23T04:18:37.504Z,98.41
2018-05-23T04:21:06.035Z,98.45
2018-05-23T04:23:34.585Z,97.99
2018-05-23T04:26:03.108Z,97.44
2018-05-23T04:28:31.623Z,96.77
2018-05-23T04:31:00.150Z,95.43
2018-05-23T04:33:28.679Z,95.17
2018-05-23T04:35:57.222Z,94.67
2018-05-23T04:38:25.768Z,93.83
2018-05-23T04:40:54.333Z,92.73
2018-05-23T04:43:22.847Z,92.03
2018-05-23T04:45:51.859Z,91.87
2018-05-23T04:48:20.429Z,91.24
2018-05-23T04:50:49.380Z,91.12
2018-05-23T04:53:17.935Z,91.11
2018-05-23T04:55:46.866Z,91.37
2018-05-23T04:58:15.396Z,90.81
2018-05-23T05:00:43.916Z,91.04
2018-05-23T05:03:12.448Z,90.11
2018-05-23T05:05:40.972Z,89.46
2018-05-23T05:08:09.500Z,89.51
2018-05-23T05:10:38.035Z,89.50
2018-05-23T05:13:06.896Z,89.60
2018-05-23T05:15:35.496Z,89.13
2018-05-23T05:18:04.818Z,87.99
2018-05-23T05:20:33.319Z,87.56
2018-05-23T05:23:02.083Z,87.42
2018-05-23T05:25:30.612Z,86.75
2018-05-23T05:27:59.788Z,86.15
2018-05-23T05:30:28.320Z,86.04
2018-05-23T05:32:57.060Z,85.07
2018-05-23T05:35:25.569Z,83.89
2018-05-23T05:37:54.395Z,84.51
2018-05-23T05:40:23.051Z,83.72
2018-05-23T05:42:52.243Z,84.08
2018-05-23T05:45:20.776Z,83.60
2018-05-23T05:47:49.373Z,83.84
2018-05-23T05:50:17.907Z,84.08
2018-05-23T05:52:46.430Z,84.86
2018-05-23T05:55:14.960Z,84.00
2018-05-23T05:57:43.484Z,84.64
2018-05-23T06:00:12.005Z,83.02
2018-05-23T06:02:40.553Z,83.99
2018-05-23T06:05:09.076Z,83.19
2018-05-23T06:07:37.611Z,83.01
2018-05-23T06:10:06.149Z,83.54
2018-05-23T06:12:34.666Z,82.19
2018-05-23T06:15:03.188Z,80.97
2018-05-23T06:17:31.735Z,81.76
2018-05-23T06:20:00.244Z,80.95
2018-05-23T06:22:28.765Z,81.69
2018-05-23T06:24:57.280Z,81.33
2018-05-23T06:27:25.818Z,81.10
2018-05-23T06:29:54.579Z,80.99
2018-05-23T06:32:23.165Z,81.36
2018-05-23T06:34:52.238Z,79.91
2018-05-23T06:37:20.740Z,80.35
2018-05-23T06:39:49.266Z,78.66
2018-05-23T06:42:17.813Z,77.35
2018-05-23T06:44:46.366Z,78.00
2018-05-23T06:47:14.867Z,76.73
2018-05-23T06:49:43.401Z,77.57
2018-05-23T06:52:11.931Z,77.81
2018-05-23T06:54:40.459Z,74.07
2018-05-23T06:57:09.064Z,74.33
2018-05-23T06:59:37.985Z,74.67
2018-05-23T07:02:06.521Z,74.64
2018-05-23T07:04:35.342Z,72.49
2018-05-23T07:07:03.834Z,74.47
2018-05-23T07:09:32.855Z,74.91
2018-05-23T07:12:01.368Z,75.77
2018-05-23T07:14:30.395Z,74.16
2018-05-23T07:16:58.901Z,72.29
2018-05-23T07:19:27.888Z,72.23
2018-05-23T07:21:56.424Z,72.65
2018-05-23T07:24:25.573Z,71.72
2018-05-23T07:26:54.092Z,71.95
2018-05-23T07:29:23.557Z,69.94
2018-05-23T07:31:52.091Z,70.24
2018-05-23T07:34:20.620Z,70.29
2018-05-23T07:36:49.159Z,71.12
2018-05-23T07:39:17.976Z,69.14
2018-05-23T07:41:46.514Z,70.88
2018-05-23T07:44:15.284Z,70.11
2018-05-23T07:46:43.820Z,68.50
2018-05-23T07:49:12.581Z,69.16
2018-05-23T07:51:41.097Z,66.37
2018-05-23T07:54:09.914Z,67.09
2018-05-23T07:56:38.516Z,66.54
2018-05-23T07:59:07.234Z,64.93
2018-05-23T08:01:36.653Z,65.24
2018-05-23T08:04:05.176Z,64.37
2018-05-23T08:06:33.704Z,63.66
2018-05-23T08:09:02.237Z,65.60
2018-05-23T08:11:30.755Z,64.85
2018-05-23T08:13:59.301Z,67.79
2018-05-23T08:16:27.999Z,68.68
2018-05-23T08:18:59.061Z,68.28
2018-05-23T08:21:28.141Z,67.45
2018-05-23T08:23:56.701Z,69.10
2018-05-23T08:26:27.168Z,69.26
2018-05-23T08:29:00.907Z,68.32
2018-05-23T08:31:32.977Z,67.58
2018-05-23T08:34:06.518Z,66.37
2018-05-23T08:36:38.840Z,69.38
2018-05-23T08:39:11.903Z,67.26
2018-05-23T08:41:43.233Z,66.76
2018-05-23T08:44:15.317Z,68.10
2018-05-23T08:46:44.136Z,66.50
2018-05-23T08:49:13.362Z,66.23
2018-05-23T08:51:44.880Z,66.98
2018-05-23T08:54:14.054Z,64.62
2018-05-23T08:56:42.698Z,65.73
2018-05-23T08:59:11.523Z,67.24
2018-05-23T09:01:42.653Z,63.44
2018-05-23T09:04:13.754Z,63.96
2018-05-23T09:06:42.314Z,66.58
2018-05-23T09:09:12.260Z,61.33
2018-05-23T09:11:44.090Z,61.95
2018-05-23T09:14:13.792Z,64.58
2018-05-23T09:16:42.720Z,62.35
2018-05-23T09:19:12.849Z,58.00
2018-05-23T09:21:43.448Z,53.51
2018-05-23T09:24:13.443Z,47.85
2018-05-23T09:26:41.980Z,46.44
2018-05-23T09:29:12.645Z,46.88
2018-05-23T09:31:44.382Z,46.50
2018-05-23T09:34:14.181Z,47.16
2018-05-23T09:36:42.957Z,43.79
2018-05-23T09:39:13.424Z,38.49
2018-05-23T09:41:45.418Z,43.04
2018-05-23T09:44:18.368Z,36.18
2018-05-23T09:46:46.963Z,42.13
2018-05-23T09:49:16.600Z,36.46
2018-05-23T09:51:47.420Z,41.96
2018-05-23T09:54:16.096Z,48.15
2018-05-23T09:56:47.544Z,44.70
2018-05-23T09:59:17.654Z,41.19
2018-05-23T10:01:49.259Z,35.36
2018-05-23T10:04:19.235Z,39.89
2018-05-23T10:06:47.734Z,40.07
2018-05-23T10:09:16.282Z,39.74
2018-05-23T10:11:48.540Z,36.05
2018-05-23T10:14:17.211Z,31.67
2018-05-23T10:16:45.734Z,35.77
2018-05-23T10:19:15.129Z,30.66
2018-05-23T10:21:48.048Z,29.81
2018-05-23T10:24:16.672Z,32.34
2018-05-23T10:26:45.200Z,31.61
2018-05-23T10:29:13.998Z,32.43
2018-05-23T10:31:45.292Z,30.51
2018-05-23T10:34:18.024Z,38.14
2018-05-23T10:36:46.575Z,37.72
2018-05-23T10:39:15.186Z,37.78
2018-05-23T10:41:46.618Z,39.66
2018-05-23T10:44:15.269Z,43.83
2018-05-23T10:46:43.760Z,39.48
2018-05-23T10:49:12.316Z,33.76
2018-05-23T10:51:45.273Z,33.32
2018-05-23T10:54:13.896Z,32.56
2018-05-23T10:56:42.427Z,34.40
2018-05-23T10:59:12.088Z,36.10
2018-05-23T11:01:43.795Z,34.35
2018-05-23T11:04:16.003Z,36.76
2018-05-23T11:06:44.740Z,37.35
2018-05-23T11:09:16.190Z,39.90
2018-05-23T11:11:48.151Z,38.42
2018-05-23T11:14:16.664Z,39.77
2018-05-23T11:16:45.187Z,38.51
2018-05-23T11:19:15.587Z,37.15
2018-05-23T11:21:48.887Z,38.51
2018-05-23T11:24:17.388Z,37.25
2018-05-23T11:26:45.947Z,31.75
2018-05-23T11:29:15.057Z,28.55
2018-05-23T11:31:47.089Z,26.18
2018-05-23T11:34:15.610Z,27.38
2018-05-23T11:36:44.166Z,28.32
2018-05-23T11:39:14.688Z,24.38
2018-05-23T11:41:46.370Z,25.85
2018-05-23T11:44:15.000Z,24.81
2018-05-23T11:46:44.788Z,26.97
2018-05-23T11:49:14.011Z,26.30
2018-05-23T11:51:45.813Z,24.49
2018-05-23T11:54:14.953Z,24.77
2018-05-23T11:56:43.469Z,25.19
2018-05-23T11:59:13.320Z,24.97
2018-05-23T12:01:44.876Z,23.41
2018-05-23T12:04:14.238Z,22.87
2018-05-23T12:06:43.236Z,22.48
2018-05-23T12:09:13.207Z,26.35
2018-05-23T12:11:47.651Z,32.55
2018-05-23T12:14:16.687Z,36.00
2018-05-23T12:16:45.894Z,37.56
2018-05-23T12:19:15.171Z,34.14
2018-05-23T12:21:47.570Z,32.72
2018-05-23T12:24:16.077Z,31.04
2018-05-23T12:26:44.672Z,28.37
2018-05-23T12:29:14.589Z,30.79
2018-05-23T12:31:43.178Z,30.43
2018-05-23T12:34:11.987Z,29.11
2018-05-23T12:36:44.214Z,28.53
2018-05-23T12:39:12.784Z,28.06
2018-05-23T12:41:44.081Z,25.71
2018-05-23T12:44:12.938Z,25.00
2018-05-23T12:46:43.553Z,23.64
2018-05-23T12:49:12.054Z,25.50
2018-05-23T12:51:40.579Z,27.19
2018-05-23T12:54:09.178Z,28.25
2018-05-23T12:56:39.633Z,28.31
2018-05-23T12:59:11.934Z,29.79
2018-05-23T13:01:40.555Z,26.98
2018-05-23T13:04:09.067Z,24.65
2018-05-23T13:06:39.030Z,24.60
2018-05-23T13:09:09.960Z,23.55
2018-05-23T13:11:41.259Z,22.77
2018-05-23T13:14:09.829Z,22.15
2018-05-23T13:16:40.592Z,22.00
2018-05-23T13:19:12.049Z,22.48
2018-05-23T13:21:40.732Z,21.50
2018-05-23T13:24:09.261Z,22.61
2018-05-23T13:26:37.810Z,21.29
2018-05-23T13:29:10.234Z,22.12
2018-05-23T13:31:40.516Z,21.06
2018-05-23T13:34:09.540Z,19.53
2018-05-23T13:36:40.210Z,19.92
2018-05-23T13:39:12.012Z,22.81
2018-05-23T13:41:40.513Z,21.94
2018-05-23T13:44:09.032Z,19.91
2018-05-23T13:46:39.103Z,19.21
2018-05-23T13:49:10.992Z,21.09
2018-05-23T13:51:41.120Z,21.87
2018-05-23T13:54:13.223Z,23.91
2018-05-23T13:56:45.810Z,25.70
2018-05-23T13:59:18.362Z,27.32
2018-05-23T14:01:50.479Z,28.18
2018-05-23T14:04:18.989Z,30.61
2018-05-23T14:06:47.513Z,32.65
2018-05-23T14:09:16.053Z,34.04
2018-05-23T14:11:48.459Z,32.87
2018-05-23T14:14:16.975Z,35.54
2018-05-23T14:16:45.594Z,35.90
2018-05-23T14:19:14.969Z,38.05
2018-05-23T14:21:44.203Z,35.51
2018-05-23T14:24:15.949Z,40.03
2018-05-23T14:26:47.928Z,38.35
2018-05-23T14:29:16.504Z,42.05
2018-05-23T14:31:44.984Z,41.52
2018-05-23T14:34:13.524Z,39.68
2018-05-23T14:36:43.079Z,43.71
2018-05-23T14:39:12.802Z,45.17
2018-05-23T14:41:44.661Z,44.08
2018-05-23T14:44:13.348Z,44.91
2018-05-23T14:46:41.879Z,45.23
2018-05-23T14:49:11.148Z,41.63
2018-05-23T14:51:43.059Z,43.50
2018-05-23T14:54:11.579Z,42.20
2018-05-23T14:56:40.113Z,41.27
2018-05-23T14:59:09.795Z,40.75
2018-05-23T15:01:41.584Z,40.11
2018-05-23T15:04:13.300Z,39.61
2018-05-23T15:06:41.903Z,42.82
2018-05-23T15:09:10.616Z,40.60
2018-05-23T15:11:43.385Z,41.04
2018-05-23T15:14:11.894Z,42.63
2018-05-23T15:16:40.660Z,42.11
2018-05-23T15:19:10.879Z,43.57
2018-05-23T15:21:42.931Z,41.58
2018-05-23T15:24:12.633Z,43.55
2018-05-23T15:26:41.688Z,43.73
2018-05-23T15:29:15.776Z,45.42
2018-05-23T15:31:47.400Z,42.51
2018-05-23T16:19:43.787Z,51.20
2018-05-23T16:22:12.303Z,53.70
2018-05-23T16:24:40.889Z,53.27
2018-05-23T16:27:10.101Z,54.32
2018-05-23T16:29:38.630Z,52.98
2018-05-23T16:32:07.204Z,53.96
2018-05-23T16:34:35.694Z,57.55
2018-05-23T16:37:04.215Z,58.69
2018-05-23T16:39:36.022Z,60.27
2018-05-23T16:42:04.532Z,58.53
2018-05-23T16:44:33.138Z,59.65
2018-05-23T16:47:02.011Z,63.71
2018-05-23T16:49:30.532Z,66.63
2018-05-23T16:51:59.082Z,65.30
2018-05-23T16:54:27.853Z,59.61
2018-05-23T16:56:56.358Z,60.86
2018-05-23T16:59:24.880Z,61.13
2018-05-23T17:01:53.406Z,63.29
2018-05-23T17:04:21.924Z,65.22
2018-05-23T17:06:50.801Z,67.07
2018-05-23T17:09:19.326Z,68.41
2018-05-23T17:11:47.847Z,66.56
2018-05-23T17:14:16.560Z,68.72
2018-05-23T17:16:45.081Z,69.73
2018-05-23T17:19:13.595Z,70.33
2018-05-23T17:21:42.557Z,71.95
2018-05-23T17:24:11.072Z,72.25
2018-05-23T17:26:39.599Z,72.36
2018-05-23T17:29:08.555Z,71.83
2018-05-23T17:31:37.083Z,73.83
2018-05-23T17:34:05.593Z,74.61
2018-05-23T17:36:34.112Z,74.55
2018-05-23T17:39:02.637Z,74.21
2018-05-23T17:41:31.533Z,74.53
2018-05-23T17:44:00.060Z,75.12
2018-05-23T17:46:28.598Z,75.88
2018-05-23T17:48:57.417Z,74.55
2018-05-23T17:51:25.942Z,71.31
2018-05-23T17:53:54.465Z,72.43
2018-05-23T17:56:22.992Z,72.69
2018-05-23T17:58:51.515Z,73.82
2018-05-23T18:01:20.053Z,74.00
2018-05-23T18:03:48.569Z,76.10
2018-05-23T18:06:17.186Z,75.29
2018-05-23T18:08:46.368Z,78.80
2018-05-23T18:11:14.895Z,78.63
2018-05-23T18:13:43.413Z,79.06
2018-05-23T18:16:12.175Z,78.53
2018-05-23T18:18:40.679Z,79.20
2018-05-23T18:21:10.108Z,79.65
2018-05-23T18:23:39.104Z,80.37
2018-05-23T18:26:07.509Z,80.48
2018-05-23T18:28:36.051Z,80.76
2018-05-23T18:31:04.822Z,81.32
2018-05-23T18:33:33.348Z,81.59
2018-05-23T18:36:01.864Z,81.82
2018-05-23T18:38:30.729Z,83.01
2018-05-23T18:40:59.249Z,82.59
2018-05-23T18:43:27.779Z,82.26
2018-05-23T18:45:56.675Z,84.42
2018-05-23T18:48:25.212Z,81.87
2018-05-23T18:50:53.737Z,81.48
2018-05-23T18:53:22.644Z,81.51
2018-05-23T18:55:51.169Z,82.30
2018-05-23T18:58:19.694Z,82.79
2018-05-23T19:00:59.910Z,83.42
2018-05-23T19:03:29.165Z,82.86
2018-05-23T19:05:57.768Z,81.16
2018-05-23T19:08:26.317Z,79.49
2018-05-23T19:11:07.938Z,79.72
2018-05-23T19:13:37.578Z,80.26
2018-05-23T19:16:06.116Z,81.10
2018-05-23T19:18:34.885Z,78.27
2018-05-23T19:21:03.401Z,78.34
2018-05-23T19:23:32.672Z,80.77
2018-05-23T19:26:01.517Z,78.87
2018-05-23T19:28:30.042Z,79.51
2018-05-23T19:30:58.581Z,79.43
2018-05-23T19:33:27.209Z,81.47
2018-05-23T19:35:55.720Z,80.50
2018-05-23T19:38:24.252Z,80.58
2018-05-23T19:40:52.789Z,81.16
2018-05-23T19:43:21.324Z,83.41
2018-05-23T19:45:49.860Z,85.75
2018-05-23T19:48:18.548Z,82.62
2018-05-23T19:50:47.086Z,83.27
2018-05-23T19:53:15.620Z,83.47
2018-05-23T19:55:44.183Z,83.95
2018-05-23T19:58:12.702Z,82.14
2018-05-23T20:00:41.227Z,83.75
2018-05-23T20:03:09.773Z,83.36
2018-05-23T20:05:38.296Z,83.36
2018-05-23T20:08:06.921Z,83.32
2018-05-23T20:10:35.440Z,83.76
2018-05-23T20:13:10.944Z,82.31
2018-05-23T20:15:39.459Z,85.16
2018-05-23T20:18:07.994Z,83.92
2018-05-23T20:20:36.529Z,84.84
2018-05-23T20:23:05.052Z,83.96
2018-05-23T20:25:33.602Z,87.51
2018-05-23T20:28:03.065Z,86.51
2018-05-23T20:30:31.580Z,86.54
2018-05-23T20:33:00.114Z,85.54
2018-05-23T20:35:28.755Z,85.17
2018-05-23T20:37:58.404Z,87.25
2018-05-23T20:40:26.930Z,90.00
2018-05-23T20:42:55.448Z,91.59
2018-05-23T20:45:24.293Z,93.01
2018-05-23T20:47:52.808Z,92.25
2018-05-23T20:50:21.334Z,92.62
2018-05-23T20:52:50.200Z,90.52
2018-05-23T20:55:18.716Z,91.72
2018-05-23T20:57:56.642Z,91.58
2018-05-23T21:00:35.898Z,90.08
2018-05-23T21:03:13.969Z,89.38
2018-05-23T21:05:48.970Z,90.91
2018-05-23T21:08:25.890Z,91.92
2018-05-23T21:11:03.677Z,92.41
2018-05-23T21:13:42.964Z,90.32
2018-05-23T21:16:21.739Z,89.63
2018-05-23T21:18:58.085Z,93.21
2018-05-23T21:21:27.152Z,94.45
2018-05-23T21:23:55.684Z,92.47
2018-05-23T21:26:24.740Z,95.38
2018-05-23T21:29:01.823Z,92.46
2018-05-23T21:31:32.447Z,91.80
2018-05-23T21:34:13.012Z,93.81
2018-05-23T21:36:49.260Z,95.40
2018-05-23T21:39:30.482Z,96.46
2018-05-23T21:42:15.116Z,96.70
2018-05-23T21:47:39.730Z,96.51
2018-05-23T21:52:10.694Z,94.92
2018-05-23T21:54:53.541Z,94.64
2018-05-23T21:57:38.575Z,92.70
2018-05-23T22:00:25.647Z,92.31
2018-05-23T22:05:48.250Z,91.41
2018-05-23T22:08:32.305Z,94.94
2018-05-23T22:11:18.751Z,94.99
2018-05-23T22:14:03.517Z,95.28
2018-05-23T22:19:40.374Z,92.58
2018-05-23T22:25:01.642Z,88.60
2018-05-23T22:27:46.161Z,90.39
2018-05-23T22:30:31.743Z,90.81
2018-05-23T22:33:14.849Z,94.84
2018-05-23T22:35:58.802Z,92.32
2018-05-23T22:38:41.852Z,88.66
2018-05-23T22:41:27.069Z,92.44
2018-05-23T22:44:14.843Z,91.25
2018-05-23T22:46:56.883Z,94.53
2018-05-23T22:49:38.698Z,91.31
2018-05-23T22:57:43.790Z,90.64
2018-05-23T23:00:32.981Z,93.49
2018-05-23T23:03:14.708Z,95.40
2018-05-23T23:05:57.949Z,94.88
2018-05-23T23:08:38.667Z,96.52
2018-05-23T23:11:19.021Z,95.14
2018-05-23T23:14:01.999Z,94.97
2018-05-23T23:16:42.443Z,94.36
2018-05-23T23:19:24.593Z,95.89
2018-05-23T23:24:48.023Z,94.48
2018-05-23T23:30:16.577Z,96.12
2018-05-23T23:32:59.595Z,97.62
2018-05-23T23:35:43.650Z,97.62
2018-05-23T23:38:30.059Z,98.00
2018-05-23T23:41:12.495Z,97.15
2018-05-23T23:43:55.138Z,95.57
2018-05-23T23:46:40.487Z,94.22
2018-05-23T23:49:25.216Z,96.67
2018-05-23T23:54:53.249Z,97.20
2018-05-23T23:57:40.361Z,95.24
